createdAt,value
2023-02-26T00:01:38.034Z,2.20
2023-02-26T00:05:41.045Z,3.67
2023-02-26T00:09:43.976Z,2.60
2023-02-26T00:13:49.212Z,2.53
2023-02-26T00:18:00.512Z,4.47
2023-02-26T00:22:05.357Z,4.13
2023-02-26T00:26:08.593Z,7.00
2023-02-26T00:30:14.115Z,2.83
2023-02-26T00:34:17.482Z,6.83
2023-02-26T00:38:20.837Z,2.90
2023-02-26T00:42:24.422Z,2.63
2023-02-26T00:46:39.520Z,4.33
2023-02-26T00:50:49.302Z,2.63
2023-02-26T00:54:52.697Z,2.17
2023-02-26T00:58:55.933Z,3.10
2023-02-26T01:03:01.045Z,3.23
2023-02-26T01:07:04.688Z,4.73
2023-02-26T01:11:08.252Z,3.43
2023-02-26T01:15:12.375Z,5.23
2023-02-26T01:19:25.478Z,4.07
2023-02-26T01:23:32.869Z,1.93
2023-02-26T01:27:36.217Z,3.13
2023-02-26T01:31:47.453Z,2.23
2023-02-26T01:35:56.729Z,2.33
2023-02-26T01:40:33.139Z,3.83
2023-02-26T01:44:42.754Z,2.97
2023-02-26T01:48:51.127Z,3.47
2023-02-26T01:53:17.527Z,2.97
2023-02-26T01:57:23.066Z,2.47
2023-02-26T02:01:26.315Z,4.13
2023-02-26T02:05:34.058Z,2.60
2023-02-26T02:09:38.620Z,3.07
2023-02-26T02:13:59.017Z,3.17
2023-02-26T02:18:06.895Z,2.17
2023-02-26T02:22:21.969Z,2.73
2023-02-26T02:26:46.636Z,6.97
2023-02-26T02:31:03.387Z,3.13
2023-02-26T02:35:13.189Z,2.90
2023-02-26T02:39:24.140Z,3.80
2023-02-26T02:43:33.617Z,2.30
2023-02-26T02:47:41.723Z,3.67
2023-02-26T02:51:50.534Z,3.03
2023-02-26T02:55:59.420Z,4.47
2023-02-26T03:00:09.089Z,2.57
2023-02-26T03:04:16.090Z,3.40
2023-02-26T03:08:23.268Z,2.73
2023-02-26T03:12:27.140Z,4.17
2023-02-26T03:17:07.411Z,3.47
2023-02-26T03:21:21.194Z,2.77
2023-02-26T03:25:28.339Z,4.53
2023-02-26T03:29:53.170Z,2.50
2023-02-26T03:34:00.268Z,5.83
2023-02-26T03:38:10.624Z,2.10
2023-02-26T03:42:23.950Z,4.07
2023-02-26T03:46:36.856Z,2.37
2023-02-26T03:50:46.083Z,4.03
2023-02-26T03:55:23.072Z,2.77
2023-02-26T03:59:52.602Z,2.17
2023-02-26T04:04:19.153Z,3.90
2023-02-26T04:08:23.536Z,4.83
2023-02-26T04:12:30.008Z,3.00
2023-02-26T04:16:33.365Z,4.23
2023-02-26T04:20:36.793Z,2.80
2023-02-26T04:24:39.854Z,2.50
2023-02-26T04:28:44.524Z,2.97
2023-02-26T04:32:48.012Z,3.57
2023-02-26T04:36:51.896Z,2.10
2023-02-26T04:40:56.182Z,3.27
2023-02-26T04:45:01.774Z,2.83
2023-02-26T04:49:05.949Z,2.73
2023-02-26T04:53:09.709Z,2.47
2023-02-26T04:57:14.269Z,2.07
2023-02-26T05:01:19.300Z,2.83
2023-02-26T05:05:22.663Z,2.20
2023-02-26T05:09:25.720Z,1.80
2023-02-26T05:13:28.730Z,2.70
2023-02-26T05:17:34.031Z,3.07
2023-02-26T05:21:37.260Z,3.33
2023-02-26T05:25:40.495Z,5.07
2023-02-26T05:29:45.008Z,2.80
2023-02-26T05:33:51.304Z,3.43
2023-02-26T05:37:54.419Z,3.23
2023-02-26T05:41:57.315Z,2.10
2023-02-26T05:46:00.950Z,3.87
2023-02-26T05:50:06.519Z,4.87
2023-02-26T05:54:09.762Z,4.47
2023-02-26T05:58:13.151Z,5.87
2023-02-26T06:02:16.367Z,3.93
2023-02-26T06:06:21.747Z,5.20
2023-02-26T06:10:24.904Z,3.00
2023-02-26T06:14:27.958Z,4.90
2023-02-26T06:18:32.262Z,5.47
2023-02-26T06:22:36.647Z,4.67
2023-02-26T06:26:39.912Z,3.63
2023-02-26T06:30:42.883Z,3.77
2023-02-26T06:34:45.814Z,3.97
2023-02-26T06:38:50.195Z,6.00
2023-02-26T06:42:53.155Z,3.13
2023-02-26T06:46:56.047Z,2.33
2023-02-26T06:50:59.068Z,3.70
2023-02-26T06:55:03.456Z,4.40
2023-02-26T06:59:06.661Z,2.90
2023-02-26T07:03:13.105Z,4.53
2023-02-26T07:07:16.068Z,4.30
2023-02-26T07:11:20.365Z,3.53
2023-02-26T07:15:23.500Z,2.27
2023-02-26T07:19:26.569Z,8.00
2023-02-26T07:23:29.865Z,2.70
2023-02-26T07:27:34.424Z,3.53
2023-02-26T07:31:37.410Z,4.17
2023-02-26T07:35:41.007Z,4.00
2023-02-26T07:39:43.918Z,2.50
2023-02-26T07:43:48.287Z,4.60
2023-02-26T07:47:52.549Z,4.37
2023-02-26T07:51:55.818Z,2.97
2023-02-26T07:55:58.619Z,4.47
2023-02-26T08:00:04.791Z,2.67
2023-02-26T08:04:15.355Z,4.03
2023-02-26T08:08:18.345Z,2.73
2023-02-26T08:12:21.439Z,6.00
2023-02-26T08:16:26.570Z,5.97
2023-02-26T08:20:29.871Z,2.20
2023-02-26T08:24:33.452Z,4.67
2023-02-26T08:28:36.802Z,2.23
2023-02-26T08:32:42.403Z,3.70
2023-02-26T08:36:45.619Z,1.70
2023-02-26T08:40:50.319Z,3.73
2023-02-26T08:44:53.366Z,5.60
2023-02-26T08:48:57.780Z,5.83
2023-02-26T08:53:00.872Z,2.17
2023-02-26T08:57:03.841Z,4.20
2023-02-26T09:01:07.047Z,4.47
2023-02-26T09:05:12.917Z,2.00
2023-02-26T09:09:16.264Z,1.70
2023-02-26T09:13:19.549Z,3.70
2023-02-26T09:17:22.535Z,2.50
2023-02-26T09:21:26.898Z,2.57
2023-02-26T09:25:29.817Z,1.80
2023-02-26T09:29:32.747Z,2.50
2023-02-26T09:33:36.505Z,1.97
2023-02-26T09:37:41.108Z,2.40
2023-02-26T09:41:48.563Z,2.67
2023-02-26T09:45:52.697Z,2.90
2023-02-26T09:50:02.026Z,2.87
2023-02-26T09:54:16.964Z,2.03
2023-02-26T09:58:25.032Z,5.03
2023-02-26T10:02:37.904Z,2.33
2023-02-26T10:06:51.023Z,1.80
2023-02-26T10:11:04.987Z,1.83
2023-02-26T10:15:14.342Z,1.83
2023-02-26T10:19:20.746Z,1.60
2023-02-26T10:23:29.801Z,1.27
2023-02-26T10:27:48.310Z,3.07
2023-02-26T10:32:03.211Z,1.70
2023-02-26T10:36:16.614Z,1.83
2023-02-26T10:40:25.660Z,1.57
2023-02-26T10:44:38.453Z,1.90
2023-02-26T10:48:55.740Z,1.97
2023-02-26T10:52:59.861Z,1.83
2023-02-26T10:57:04.082Z,1.93
2023-02-26T11:01:17.163Z,3.43
2023-02-26T11:05:23.695Z,1.40
2023-02-26T11:09:28.685Z,1.70
2023-02-26T11:13:34.869Z,1.60
2023-02-26T11:17:39.527Z,2.10
2023-02-26T11:21:46.207Z,2.30
2023-02-26T11:25:54.338Z,2.73
2023-02-26T11:29:59.617Z,1.87
2023-02-26T11:34:06.790Z,1.67
2023-02-26T11:38:19.769Z,2.93
2023-02-26T11:42:22.960Z,2.20
2023-02-26T11:46:28.733Z,1.60
2023-02-26T11:50:43.147Z,3.97
2023-02-26T11:54:47.764Z,3.40
2023-02-26T11:58:55.453Z,1.47
2023-02-26T12:03:04.366Z,2.37
2023-02-26T12:07:14.986Z,2.30
2023-02-26T12:11:43.776Z,1.50
2023-02-26T12:15:58.325Z,2.23
2023-02-26T12:20:15.322Z,2.20
2023-02-26T12:24:41.029Z,1.77
2023-02-26T12:29:23.894Z,1.50
2023-02-26T12:33:39.362Z,1.73
2023-02-26T12:37:53.008Z,3.40
2023-02-26T12:42:09.959Z,3.60
2023-02-26T12:46:24.476Z,2.70
2023-02-26T12:50:48.377Z,1.70
2023-02-26T12:55:05.400Z,2.00
2023-02-26T12:59:41.488Z,2.07
2023-02-26T13:04:13.928Z,2.03
2023-02-26T13:08:24.446Z,2.90
2023-02-26T13:12:38.646Z,1.80
2023-02-26T13:16:51.698Z,1.70
2023-02-26T13:21:00.515Z,1.50
2023-02-26T13:25:07.430Z,1.60
2023-02-26T13:29:17.925Z,2.00
2023-02-26T13:33:28.098Z,2.07
2023-02-26T13:37:33.838Z,1.67
2023-02-26T13:41:46.210Z,1.70
2023-02-26T13:45:59.457Z,4.00
2023-02-26T13:50:28.495Z,1.60
2023-02-26T13:54:43.646Z,1.53
2023-02-26T13:58:53.179Z,1.80
2023-02-26T14:02:58.516Z,1.93
2023-02-26T14:07:11.856Z,1.70
2023-02-26T14:11:42.089Z,1.17
2023-02-26T14:15:53.858Z,2.13
2023-02-26T14:20:18.923Z,2.23
2023-02-26T14:24:35.944Z,2.03
2023-02-26T14:28:45.435Z,1.67
2023-02-26T14:32:54.040Z,1.57
2023-02-26T14:37:00.826Z,1.63
2023-02-26T14:41:10.991Z,1.50
2023-02-26T14:45:27.332Z,1.47
2023-02-26T14:49:33.620Z,1.77
2023-02-26T14:54:15.014Z,1.70
2023-02-26T14:58:38.071Z,1.40
2023-02-26T15:03:06.231Z,1.20
2023-02-26T15:07:23.093Z,2.37
2023-02-26T15:11:38.851Z,2.37
2023-02-26T15:15:53.381Z,5.73
2023-02-26T15:20:06.891Z,2.93
2023-02-26T15:24:14.370Z,4.40
2023-02-26T15:28:30.140Z,2.30
2023-02-26T15:32:41.083Z,3.30
2023-02-26T15:36:46.598Z,3.47
2023-02-26T15:40:51.530Z,2.30
2023-02-26T15:45:03.023Z,2.20
2023-02-26T15:49:11.934Z,1.80
2023-02-26T15:53:22.414Z,1.60
2023-02-26T15:57:27.432Z,2.33
2023-02-26T16:01:32.452Z,2.13
2023-02-26T16:05:38.670Z,1.83
2023-02-26T16:09:43.470Z,2.10
2023-02-26T16:13:49.853Z,2.23
2023-02-26T16:17:56.893Z,3.60
2023-02-26T16:22:06.014Z,2.50
2023-02-26T16:26:14.873Z,2.63
2023-02-26T16:30:38.736Z,2.93
2023-02-26T16:34:45.379Z,2.93
2023-02-26T16:38:52.244Z,3.07
2023-02-26T16:43:02.232Z,2.23
2023-02-26T16:47:05.564Z,2.73
2023-02-26T16:51:12.567Z,2.40
2023-02-26T16:55:19.331Z,2.90
2023-02-26T16:59:25.601Z,1.90
2023-02-26T17:03:31.041Z,3.50
2023-02-26T17:07:36.482Z,3.07
2023-02-26T17:11:45.652Z,5.87
2023-02-26T17:15:49.159Z,6.07
2023-02-26T17:19:53.058Z,7.87
2023-02-26T17:24:01.887Z,4.50
2023-02-26T17:28:07.298Z,3.67
2023-02-26T17:32:19.797Z,3.43
2023-02-26T17:36:22.673Z,3.73
2023-02-26T17:40:28.063Z,5.20
2023-02-26T17:44:32.208Z,4.53
2023-02-26T17:48:35.586Z,2.23
2023-02-26T17:52:38.394Z,3.77
2023-02-26T17:56:42.177Z,2.60
2023-02-26T18:00:49.917Z,3.47
2023-02-26T18:04:53.082Z,4.40
2023-02-26T18:08:55.968Z,2.20
2023-02-26T18:12:59.587Z,1.80
2023-02-26T18:17:04.070Z,4.63
2023-02-26T18:21:06.997Z,2.93
2023-02-26T18:25:12.651Z,3.73
2023-02-26T18:29:15.470Z,4.00
2023-02-26T18:33:20.574Z,4.40
2023-02-26T18:37:26.163Z,4.13
2023-02-26T18:41:29.362Z,4.53
2023-02-26T18:45:32.346Z,4.83
2023-02-26T18:49:36.939Z,6.80
2023-02-26T18:53:40.502Z,6.97
2023-02-26T18:57:43.523Z,4.37
2023-02-26T19:01:47.137Z,3.30
2023-02-26T19:05:58.765Z,3.10
2023-02-26T19:10:02.324Z,3.13
2023-02-26T19:14:05.563Z,3.50
2023-02-26T19:18:08.428Z,4.53
2023-02-26T19:22:14.889Z,4.37
2023-02-26T19:26:17.755Z,3.97
2023-02-26T19:30:21.557Z,2.60
2023-02-26T19:34:24.591Z,4.97
2023-02-26T19:38:28.764Z,5.47
2023-02-26T19:42:31.618Z,6.43
2023-02-26T19:46:36.001Z,3.83
2023-02-26T19:50:38.912Z,4.30
2023-02-26T19:54:43.148Z,5.63
2023-02-26T19:58:46.051Z,6.13
2023-02-26T20:02:48.975Z,5.00
2023-02-26T20:06:51.907Z,6.03
2023-02-26T20:10:58.284Z,4.47
2023-02-26T20:15:01.112Z,7.20
2023-02-26T20:19:03.986Z,8.10
2023-02-26T20:23:06.781Z,6.43
2023-02-26T20:27:11.017Z,3.87
2023-02-26T20:31:14.038Z,4.33
2023-02-26T20:35:17.004Z,4.23
2023-02-26T20:39:21.027Z,5.23
2023-02-26T20:43:25.965Z,4.90
2023-02-26T20:47:28.832Z,3.77
2023-02-26T20:51:32.138Z,7.80
2023-02-26T20:55:35.083Z,3.93
2023-02-26T20:59:39.369Z,6.47
2023-02-26T21:03:42.220Z,5.27
2023-02-26T21:07:45.446Z,4.10
2023-02-26T21:11:48.460Z,4.20
2023-02-26T21:15:52.668Z,5.13
2023-02-26T21:19:55.665Z,7.20
2023-02-26T21:23:58.488Z,4.33
2023-02-26T21:28:01.316Z,6.43
2023-02-26T21:32:07.110Z,4.33
2023-02-26T21:36:11.463Z,6.43
2023-02-26T21:40:15.968Z,5.73
2023-02-26T21:44:18.830Z,6.23
2023-02-26T21:48:23.901Z,5.40
2023-02-26T21:52:28.804Z,3.60
2023-02-26T21:56:31.953Z,5.40
2023-02-26T22:00:34.957Z,4.77
2023-02-26T22:04:39.118Z,4.37
2023-02-26T22:08:41.955Z,6.83
2023-02-26T22:12:44.824Z,5.80
2023-02-26T22:16:47.784Z,6.20
2023-02-26T22:20:52.019Z,6.03
2023-02-26T22:24:54.835Z,7.07
2023-02-26T22:28:59.680Z,6.73
2023-02-26T22:33:02.528Z,5.83
2023-02-26T22:37:06.698Z,7.83
2023-02-26T22:41:09.518Z,6.80
2023-02-26T22:45:13.536Z,10.07
2023-02-26T22:49:16.727Z,6.53
2023-02-26T22:53:20.894Z,7.33
2023-02-26T22:57:23.697Z,6.97
2023-02-26T23:01:26.619Z,6.10
2023-02-26T23:05:29.565Z,7.97
2023-02-26T23:09:33.827Z,10.77
2023-02-26T23:13:38.109Z,9.93
2023-02-26T23:17:41.471Z,11.83
2023-02-26T23:21:44.279Z,8.07
2023-02-26T23:25:48.418Z,8.47
2023-02-26T23:29:51.544Z,6.13
2023-02-26T23:33:54.306Z,5.33
2023-02-26T23:37:57.297Z,6.40
2023-02-26T23:42:01.543Z,5.33
2023-02-26T23:46:04.589Z,5.07
2023-02-26T23:50:08.616Z,6.00
2023-02-26T23:54:12.114Z,6.73
2023-02-26T23:58:16.319Z,7.67
